Time;durP1;ratioP1;P1;durP2;ratioP2;P2;SDS_P1;SDS_P2;PMS_P1;PMS_P2;Temp;Humidity;BMP_temperature;BMP_pressure;BME280_temperature;BME280_humidity;BME280_pressure;Samples;Min_cycle;Max_cycle;Signal;HPM_P1;HPM_P2
2022/01/30 00:01:53;;;;;;;14.43;3.72;;;7.70;93.20;;;;;;5049611;28;20029;-64
2022/01/30 00:04:18;;;;;;;17.60;4.13;;;7.70;93.40;;;;;;5047909;28;20100;-64
2022/01/30 00:06:44;;;;;;;13.95;4.25;;;7.70;93.50;;;;;;5045118;28;20049;-63
2022/01/30 00:09:17;;;;;;;27.48;5.78;;;7.70;93.60;;;;;;5049329;28;20035;-63
2022/01/30 00:11:46;;;;;;;14.55;3.55;;;7.70;93.60;;;;;;5048190;28;20033;-65
2022/01/30 00:14:15;;;;;;;16.30;4.07;;;7.60;93.60;;;;;;5044297;28;20037;-64
2022/01/30 00:16:41;;;;;;;17.23;3.50;;;7.60;93.70;;;;;;5032218;28;20041;-63
2022/01/30 00:19:17;;;;;;;12.15;3.17;;;7.70;93.70;;;;;;5049722;28;20029;-63
2022/01/30 00:21:48;;;;;;;19.35;4.00;;;7.70;93.80;;;;;;5050691;28;20044;-63
2022/01/30 00:24:22;;;;;;;17.80;5.05;;;7.60;93.70;;;;;;5051261;28;20044;-64
2022/01/30 00:26:48;;;;;;;15.48;3.47;;;7.70;93.80;;;;;;5032479;28;20132;-63
2022/01/30 00:29:13;;;;;;;13.13;3.72;;;7.60;93.70;;;;;;5027521;28;20117;-64
2022/01/30 00:31:39;;;;;;;12.45;3.20;;;7.60;93.60;;;;;;5036759;28;20056;-63
2022/01/30 00:34:05;;;;;;;14.80;4.45;;;7.60;93.60;;;;;;5032152;28;20025;-64
2022/01/30 00:36:31;;;;;;;16.95;3.50;;;7.70;93.60;;;;;;5028739;28;20098;-64
2022/01/30 00:38:58;;;;;;;19.67;3.97;;;7.70;93.50;;;;;;5048539;28;20062;-64
2022/01/30 00:41:23;;;;;;;11.52;3.65;;;7.70;93.30;;;;;;5046316;28;20028;-63
2022/01/30 00:43:49;;;;;;;18.83;4.68;;;7.80;93.40;;;;;;5051117;28;20032;-64
2022/01/30 00:46:14;;;;;;;12.38;3.83;;;7.80;93.10;;;;;;5036837;28;20031;-63
2022/01/30 00:48:40;;;;;;;15.30;4.00;;;7.90;93.10;;;;;;5032458;28;20393;-63
2022/01/30 00:51:06;;;;;;;12.55;3.00;;;7.90;92.90;;;;;;5031808;28;20021;-63
2022/01/30 00:53:31;;;;;;;17.15;3.50;;;7.90;92.90;;;;;;5039276;28;20032;-63
2022/01/30 00:55:57;;;;;;;8.27;2.83;;;7.90;92.90;;;;;;5038721;28;20029;-63
2022/01/30 00:58:22;;;;;;;10.73;2.88;;;7.90;92.90;;;;;;5031966;28;20036;-63
2022/01/30 01:00:47;;;;;;;13.82;3.92;;;7.90;93.30;;;;;;5039553;28;20041;-63
2022/01/30 01:03:13;;;;;;;11.48;3.22;;;7.90;93.20;;;;;;5047334;28;20116;-63
2022/01/30 01:05:39;;;;;;;11.75;3.42;;;7.90;93.30;;;;;;5038826;28;20079;-63
2022/01/30 01:08:18;;;;;;;16.23;3.47;;;7.90;93.30;;;;;;5039042;28;20064;-64
2022/01/30 01:10:57;;;;;;;13.57;4.05;;;7.90;93.30;;;;;;5041222;28;20028;-63
2022/01/30 01:24:07;;;;;;;20.98;3.67;;;7.90;92.70;;;;;;5055351;28;20453;-64
2022/01/30 01:26:34;;;;;;;16.38;3.67;;;7.90;92.70;;;;;;5038277;28;20056;-64
2022/01/30 01:29:00;;;;;;;16.10;3.75;;;7.90;92.30;;;;;;5052328;28;20029;-64
2022/01/30 01:31:26;;;;;;;16.10;4.75;;;7.90;92.40;;;;;;5039372;28;20117;-64
2022/01/30 01:36:36;;;;;;;13.15;4.32;;;8.00;92.10;;;;;;5046209;28;20602;-64
2022/01/30 01:39:03;;;;;;;13.07;3.17;;;8.00;92.10;;;;;;5053475;28;20107;-65
2022/01/30 01:41:31;;;;;;;17.92;3.40;;;8.00;92.00;;;;;;5043394;28;20029;-65
2022/01/30 01:43:57;;;;;;;12.10;3.60;;;8.10;91.80;;;;;;5034935;28;20100;-65
2022/01/30 01:46:26;;;;;;;13.88;3.67;;;8.10;91.60;;;;;;5046188;28;20104;-65
2022/01/30 01:48:53;;;;;;;14.85;3.30;;;8.10;91.70;;;;;;5045038;28;20396;-65
2022/01/30 01:51:25;;;;;;;13.85;3.67;;;8.10;91.70;;;;;;5050150;28;20037;-65
2022/01/30 01:53:53;;;;;;;17.33;3.10;;;8.10;91.50;;;;;;5034848;28;20044;-65
2022/01/30 01:56:19;;;;;;;14.02;3.50;;;8.10;91.60;;;;;;5035240;28;20068;-65
2022/01/30 01:58:45;;;;;;;14.60;3.13;;;8.20;91.60;;;;;;5034584;28;20485;-65
2022/01/30 02:01:11;;;;;;;9.80;2.80;;;8.20;91.50;;;;;;5041369;28;20041;-65
2022/01/30 02:03:40;;;;;;;18.80;4.10;;;8.20;91.40;;;;;;5054187;28;20063;-65
2022/01/30 02:06:09;;;;;;;11.73;3.47;;;8.20;91.50;;;;;;5042186;28;20029;-65
2022/01/30 02:08:38;;;;;;;18.90;4.20;;;8.20;91.30;;;;;;5034570;28;20037;-65
2022/01/30 02:11:08;;;;;;;7.68;3.22;;;8.20;91.60;;;;;;5038165;28;20026;-65
2022/01/30 02:13:55;;;;;;;10.25;3.33;;;8.20;91.60;;;;;;5036892;28;20025;-65
2022/01/30 02:24:49;;;;;;;11.88;3.28;;;8.20;91.80;;;;;;5053326;28;20542;-65
2022/01/30 02:27:19;;;;;;;10.70;2.90;;;8.20;91.80;;;;;;5040541;28;20480;-65
2022/01/30 02:29:45;;;;;;;17.25;4.10;;;8.20;91.70;;;;;;5050231;28;20040;-65
2022/01/30 02:32:11;;;;;;;13.60;3.45;;;8.20;91.60;;;;;;5053540;28;20112;-63
2022/01/30 02:34:37;;;;;;;15.40;3.60;;;8.20;91.50;;;;;;5044832;28;20481;-64
2022/01/30 02:37:04;;;;;;;14.73;2.80;;;8.20;91.40;;;;;;5053159;28;20037;-63
2022/01/30 02:39:29;;;;;;;12.52;3.30;;;8.20;91.50;;;;;;5044644;28;20407;-63
2022/01/30 02:41:55;;;;;;;11.93;2.70;;;8.30;91.50;;;;;;5044089;28;20033;-63
2022/01/30 02:44:29;;;;;;;17.48;3.25;;;8.20;91.30;;;;;;5053811;28;20029;-64
2022/01/30 02:46:59;;;;;;;17.58;3.20;;;8.20;91.40;;;;;;5044106;28;20037;-64
2022/01/30 02:50:08;;;;;;;13.27;3.20;;;8.30;91.50;;;;;;5046462;28;20029;-65
2022/01/30 02:52:17;;;;;;;12.88;3.53;;;8.30;91.50;;;;;;5052355;28;20388;-65
2022/01/30 02:54:42;;;;;;;14.43;3.00;;;8.30;91.30;;;;;;5051974;28;20040;-64
2022/01/30 02:57:08;;;;;;;12.68;3.42;;;8.20;91.20;;;;;;5046400;28;20029;-64
2022/01/30 02:59:33;;;;;;;16.42;3.72;;;8.30;91.20;;;;;;5051200;28;20388;-64
2022/01/30 03:02:01;;;;;;;19.67;3.85;;;8.20;91.30;;;;;;5041722;28;20400;-64
2022/01/30 03:04:26;;;;;;;14.57;3.95;;;8.30;91.20;;;;;;5046120;28;20025;-64
2022/01/30 03:06:52;;;;;;;11.48;3.05;;;8.30;91.40;;;;;;5052864;28;20017;-64
2022/01/30 03:09:17;;;;;;;12.90;4.35;;;8.20;91.40;;;;;;5051016;28;20021;-64
2022/01/30 03:11:43;;;;;;;13.40;4.70;;;8.20;91.10;;;;;;5034628;28;20021;-64
2022/01/30 03:14:08;;;;;;;13.25;4.28;;;8.20;91.30;;;;;;5051521;28;20033;-64
2022/01/30 03:16:34;;;;;;;15.35;4.22;;;8.20;91.40;;;;;;5045499;28;20036;-64
2022/01/30 03:19:01;;;;;;;9.25;3.47;;;8.20;91.40;;;;;;5033135;28;20033;-64
2022/01/30 03:21:26;;;;;;;14.73;4.90;;;8.20;91.60;;;;;;5051045;28;20032;-64
2022/01/30 03:23:52;;;;;;;12.00;2.88;;;8.10;91.90;;;;;;5048916;28;20111;-64
2022/01/30 03:26:17;;;;;;;14.60;3.63;;;8.10;91.90;;;;;;5032982;28;20075;-64
2022/01/30 03:28:45;;;;;;;13.50;3.75;;;8.10;92.10;;;;;;5033856;28;20477;-65
2022/01/30 03:31:12;;;;;;;12.75;4.30;;;8.10;92.20;;;;;;5052586;28;20025;-64
2022/01/30 03:33:39;;;;;;;12.13;3.25;;;8.10;92.30;;;;;;5048417;28;20122;-64
2022/01/30 03:36:05;;;;;;;12.82;2.85;;;8.00;92.40;;;;;;5071921;28;20112;-64
2022/01/30 03:38:31;;;;;;;13.63;4.43;;;8.00;92.40;;;;;;5063624;28;20033;-64
2022/01/30 03:40:57;;;;;;;20.05;4.95;;;8.00;92.30;;;;;;5034355;28;20071;-64
2022/01/30 03:43:22;;;;;;;19.75;3.25;;;8.00;92.30;;;;;;5032355;28;20060;-64
2022/01/30 03:45:48;;;;;;;12.82;3.58;;;7.90;91.90;;;;;;5033013;28;20056;-63
2022/01/30 03:48:14;;;;;;;14.10;4.18;;;7.90;91.90;;;;;;5034144;28;20033;-64
2022/01/30 03:50:41;;;;;;;14.00;4.45;;;8.00;91.80;;;;;;5047504;28;20029;-64
2022/01/30 03:53:07;;;;;;;13.30;3.88;;;7.90;91.60;;;;;;5043667;28;20150;-64
2022/01/30 03:55:32;;;;;;;16.55;3.85;;;7.90;91.60;;;;;;5051906;28;20104;-64
2022/01/30 03:57:58;;;;;;;16.98;4.45;;;7.90;91.60;;;;;;5043932;28;20049;-64
2022/01/30 04:00:24;;;;;;;13.63;3.65;;;7.90;91.80;;;;;;5050195;28;20049;-64
2022/01/30 04:02:49;;;;;;;13.65;3.17;;;7.90;92.00;;;;;;5044885;28;20029;-64
2022/01/30 04:05:15;;;;;;;16.00;4.32;;;7.80;92.10;;;;;;5051978;28;20021;-64
2022/01/30 04:07:41;;;;;;;14.48;3.70;;;7.80;92.40;;;;;;5026991;28;20025;-64
2022/01/30 04:10:08;;;;;;;14.43;4.55;;;7.70;93.30;;;;;;5033854;28;20028;-64
2022/01/30 04:12:33;;;;;;;20.15;4.32;;;7.60;93.90;;;;;;5046745;28;20116;-64
2022/01/30 04:14:59;;;;;;;14.00;5.22;;;7.50;94.10;;;;;;5048659;28;20107;-64
2022/01/30 04:17:25;;;;;;;18.65;4.00;;;7.50;94.00;;;;;;5046928;28;20045;-64
2022/01/30 04:19:51;;;;;;;10.60;3.20;;;7.50;94.60;;;;;;5032828;28;20472;-64
2022/01/30 04:22:17;;;;;;;14.57;3.35;;;7.50;94.70;;;;;;5031734;28;20022;-64
2022/01/30 04:24:43;;;;;;;12.05;3.83;;;7.40;94.90;;;;;;5043779;28;20021;-64
2022/01/30 04:27:08;;;;;;;12.80;3.30;;;7.30;95.10;;;;;;5031957;28;20036;-64
2022/01/30 04:29:34;;;;;;;10.77;2.78;;;7.30;95.40;;;;;;5045398;28;20025;-64
2022/01/30 04:32:00;;;;;;;10.32;2.95;;;7.30;95.50;;;;;;5051560;28;20032;-64
2022/01/30 04:34:28;;;;;;;15.77;4.25;;;7.30;95.40;;;;;;5037168;28;20040;-64
2022/01/30 04:40:04;;;;;;;15.30;3.42;;;7.20;95.50;;;;;;5040536;28;20128;-64
2022/01/30 05:06:08;;;;;;;12.15;3.97;;;7.30;94.30;;;;;;5031308;28;20033;-64
2022/01/30 05:08:34;;;;;;;12.25;3.83;;;7.40;94.30;;;;;;5030942;28;20033;-64
2022/01/30 05:11:04;;;;;;;14.75;4.07;;;7.30;94.30;;;;;;5031319;28;20404;-65
2022/01/30 05:13:32;;;;;;;10.55;3.13;;;7.30;94.30;;;;;;5031988;28;20036;-65
2022/01/30 05:15:58;;;;;;;12.20;3.35;;;7.30;94.40;;;;;;5050184;28;20037;-65
2022/01/30 05:18:26;;;;;;;13.63;3.53;;;7.30;94.40;;;;;;5049251;28;20044;-65
2022/01/30 05:20:52;;;;;;;16.75;4.20;;;7.30;94.40;;;;;;5020795;28;20412;-65
2022/01/30 05:23:19;;;;;;;12.23;3.47;;;7.30;94.50;;;;;;5047656;28;20029;-65
2022/01/30 05:25:49;;;;;;;17.55;4.10;;;7.30;94.50;;;;;;5051009;28;20056;-65
2022/01/30 05:28:16;;;;;;;12.07;3.08;;;7.20;94.50;;;;;;5048978;28;20021;-64
2022/01/30 05:30:42;;;;;;;19.13;4.30;;;7.30;94.40;;;;;;5035692;28;20033;-65
2022/01/30 05:33:08;;;;;;;14.40;3.13;;;7.30;94.10;;;;;;5031536;28;20067;-64
2022/01/30 05:35:34;;;;;;;13.25;3.35;;;7.30;94.00;;;;;;5031258;28;20398;-65
2022/01/30 05:38:01;;;;;;;16.00;4.95;;;7.30;93.90;;;;;;5031680;28;20037;-65
2022/01/30 05:40:27;;;;;;;17.63;3.67;;;7.30;93.80;;;;;;5030932;28;20469;-64
2022/01/30 05:42:53;;;;;;;22.42;4.78;;;7.30;93.40;;;;;;5030987;28;20037;-64
2022/01/30 05:45:36;;;;;;;12.60;2.83;;;7.30;93.00;;;;;;5050733;28;20021;-64
2022/01/30 05:48:08;;;;;;;14.55;3.28;;;7.30;93.20;;;;;;5049355;28;20108;-64
2022/01/30 05:50:34;;;;;;;12.05;3.38;;;7.30;93.00;;;;;;5031075;28;20064;-64
2022/01/30 05:52:59;;;;;;;19.73;4.35;;;7.30;93.20;;;;;;5038258;28;20413;-65
2022/01/30 05:55:25;;;;;;;14.98;3.20;;;7.30;93.20;;;;;;5050883;28;20488;-65
2022/01/30 05:57:50;;;;;;;15.05;3.20;;;7.30;93.30;;;;;;5050145;28;20110;-64
2022/01/30 06:00:16;;;;;;;16.67;4.25;;;7.30;93.50;;;;;;5054312;28;20060;-66
2022/01/30 06:02:43;;;;;;;16.92;4.30;;;7.30;93.50;;;;;;5050983;28;20503;-66
2022/01/30 06:05:09;;;;;;;17.92;3.42;;;7.30;93.60;;;;;;5053897;28;20025;-65
2022/01/30 06:07:37;;;;;;;12.80;3.25;;;7.30;93.60;;;;;;5048216;28;20038;-65
2022/01/30 06:10:04;;;;;;;16.58;3.65;;;7.30;93.50;;;;;;5050128;28;20052;-66
2022/01/30 06:12:29;;;;;;;13.07;3.45;;;7.30;93.40;;;;;;5034175;28;20025;-65
2022/01/30 06:14:55;;;;;;;14.13;4.82;;;7.30;93.30;;;;;;5050500;28;20021;-65
2022/01/30 06:17:21;;;;;;;17.23;3.50;;;7.30;93.20;;;;;;5039036;28;20044;-65
2022/01/30 06:19:46;;;;;;;19.67;3.60;;;7.30;92.90;;;;;;5052429;28;20032;-65
2022/01/30 06:22:12;;;;;;;15.50;4.15;;;7.30;93.10;;;;;;5053655;28;20043;-65
2022/01/30 06:24:37;;;;;;;17.35;5.18;;;7.30;93.00;;;;;;5051385;28;20472;-65
2022/01/30 06:27:03;;;;;;;16.17;5.03;;;7.30;93.00;;;;;;5053933;28;20017;-66
2022/01/30 06:29:29;;;;;;;21.83;5.82;;;7.40;92.80;;;;;;5045073;28;20021;-65
2022/01/30 06:31:54;;;;;;;19.15;4.80;;;7.40;92.70;;;;;;5044865;28;20026;-65
2022/01/30 06:34:20;;;;;;;12.23;3.95;;;7.40;92.70;;;;;;5046441;28;20523;-65
2022/01/30 06:36:45;;;;;;;13.50;4.30;;;7.40;92.80;;;;;;5038451;28;20121;-65
2022/01/30 06:39:11;;;;;;;13.90;4.40;;;7.30;92.70;;;;;;5034059;28;20045;-65
2022/01/30 06:41:36;;;;;;;15.82;3.42;;;7.30;92.80;;;;;;5033833;28;20083;-65
2022/01/30 06:44:02;;;;;;;17.10;3.60;;;7.30;92.70;;;;;;5044010;28;20029;-65
2022/01/30 06:46:27;;;;;;;19.73;4.72;;;7.30;92.70;;;;;;5053292;28;20546;-66
2022/01/30 06:48:53;;;;;;;15.13;4.20;;;7.30;92.70;;;;;;5048978;28;20013;-65
2022/01/30 06:51:18;;;;;;;16.77;3.50;;;7.30;92.40;;;;;;5053423;28;20025;-65
2022/01/30 06:53:44;;;;;;;14.82;4.13;;;7.30;92.50;;;;;;5046295;28;20032;-66
2022/01/30 06:56:09;;;;;;;15.02;5.68;;;7.40;92.50;;;;;;5053464;28;20027;-65
2022/01/30 06:58:35;;;;;;;11.60;3.15;;;7.40;92.30;;;;;;5051074;28;20039;-65
2022/01/30 07:01:00;;;;;;;16.48;3.85;;;7.40;92.10;;;;;;5048914;28;20066;-64
2022/01/30 07:03:26;;;;;;;10.02;3.30;;;7.30;92.10;;;;;;5038567;28;20075;-64
2022/01/30 07:05:51;;;;;;;14.38;3.70;;;7.40;92.00;;;;;;5052997;28;20100;-64
2022/01/30 07:08:17;;;;;;;14.15;3.88;;;7.40;91.50;;;;;;5045751;28;20038;-65
2022/01/30 07:10:42;;;;;;;16.02;5.05;;;7.40;91.50;;;;;;5053300;28;20500;-65
2022/01/30 07:13:10;;;;;;;15.45;4.15;;;7.40;91.20;;;;;;5051041;28;20039;-65
2022/01/30 07:15:35;;;;;;;17.73;4.88;;;7.40;91.10;;;;;;5053020;28;20025;-65
2022/01/30 07:18:01;;;;;;;12.25;3.72;;;7.50;91.10;;;;;;5050947;28;20391;-65
2022/01/30 07:20:27;;;;;;;17.48;4.57;;;7.50;91.20;;;;;;5050011;28;20021;-65
2022/01/30 07:22:52;;;;;;;14.40;3.83;;;7.50;91.10;;;;;;5050581;28;20032;-65
2022/01/30 07:25:18;;;;;;;19.88;4.85;;;7.60;91.10;;;;;;5050230;28;20021;-64
2022/01/30 07:27:43;;;;;;;19.98;4.50;;;7.60;91.00;;;;;;5032640;28;20026;-64
2022/01/30 07:30:10;;;;;;;17.13;3.95;;;7.70;91.00;;;;;;5038288;28;20036;-63
2022/01/30 07:32:36;;;;;;;16.75;5.20;;;7.70;91.10;;;;;;5031499;28;20029;-63
2022/01/30 07:35:01;;;;;;;14.32;4.40;;;7.70;91.00;;;;;;5036461;28;20043;-62
2022/01/30 07:37:27;;;;;;;12.73;3.95;;;7.70;91.00;;;;;;5033218;28;20109;-62
2022/01/30 07:39:54;;;;;;;16.92;3.63;;;7.80;91.10;;;;;;5037420;28;20492;-62
2022/01/30 07:42:20;;;;;;;11.75;5.10;;;7.90;90.70;;;;;;5051672;28;20106;-62
2022/01/30 07:44:46;;;;;;;20.15;3.53;;;7.90;90.60;;;;;;5049905;28;20029;-62
2022/01/30 07:47:12;;;;;;;16.05;3.50;;;7.90;90.60;;;;;;5034964;28;20032;-62
2022/01/30 07:49:37;;;;;;;14.60;4.20;;;7.90;90.60;;;;;;5029303;28;20024;-63
2022/01/30 07:52:03;;;;;;;15.70;3.90;;;8.00;90.60;;;;;;5051365;28;20415;-62
2022/01/30 07:54:31;;;;;;;14.68;4.65;;;8.00;90.40;;;;;;5048384;28;20104;-63
2022/01/30 07:56:57;;;;;;;11.52;4.15;;;8.00;90.70;;;;;;5033557;28;20077;-62
2022/01/30 07:59:23;;;;;;;17.42;4.07;;;8.00;90.20;;;;;;5042613;28;20056;-63
2022/01/30 08:01:48;;;;;;;12.88;3.55;;;8.00;90.30;;;;;;5052146;28;20033;-62
2022/01/30 08:04:14;;;;;;;12.93;3.58;;;8.10;90.10;;;;;;5048151;28;20099;-62
2022/01/30 08:06:39;;;;;;;17.45;4.22;;;8.10;90.10;;;;;;5051745;28;20087;-64
2022/01/30 08:09:05;;;;;;;15.38;4.00;;;8.10;90.30;;;;;;5050557;28;20036;-63
2022/01/30 08:11:30;;;;;;;17.48;3.65;;;8.10;90.10;;;;;;5052160;28;20476;-65
2022/01/30 08:13:56;;;;;;;13.93;4.07;;;8.10;90.00;;;;;;5050675;28;20035;-66
2022/01/30 08:16:23;;;;;;;15.43;4.68;;;8.10;90.00;;;;;;5048763;28;20037;-66
2022/01/30 08:18:49;;;;;;;17.75;4.35;;;8.10;89.60;;;;;;5031178;28;20037;-66
2022/01/30 08:21:14;;;;;;;15.45;3.40;;;8.10;89.80;;;;;;5032441;28;20033;-65
2022/01/30 08:23:40;;;;;;;16.08;4.80;;;8.00;89.60;;;;;;5050315;28;20033;-65
2022/01/30 08:26:06;;;;;;;22.15;5.70;;;8.00;90.00;;;;;;5045237;28;20029;-66
2022/01/30 08:28:32;;;;;;;11.90;3.35;;;8.00;89.90;;;;;;5047233;28;20028;-65
2022/01/30 08:30:57;;;;;;;13.60;3.33;;;8.00;89.90;;;;;;5043178;28;20021;-66
2022/01/30 08:33:23;;;;;;;17.05;3.78;;;8.00;90.10;;;;;;5017204;28;20033;-66
2022/01/30 08:35:50;;;;;;;12.38;3.33;;;8.00;89.70;;;;;;5047823;28;20028;-66
2022/01/30 08:38:18;;;;;;;14.02;4.72;;;8.00;89.40;;;;;;5037020;28;20504;-65
2022/01/30 08:40:45;;;;;;;16.92;3.65;;;8.00;89.20;;;;;;5050040;28;20027;-64
2022/01/30 08:43:10;;;;;;;14.70;3.45;;;8.00;89.10;;;;;;5047920;28;20029;-63
2022/01/30 08:45:36;;;;;;;23.30;4.78;;;8.00;89.10;;;;;;5043340;28;20114;-63
2022/01/30 08:48:02;;;;;;;15.95;4.15;;;8.00;88.30;;;;;;5048527;28;20032;-63
2022/01/30 08:50:27;;;;;;;15.77;4.40;;;8.00;88.70;;;;;;5040009;28;20691;-63
2022/01/30 08:52:53;;;;;;;14.55;3.45;;;8.00;88.40;;;;;;5065840;28;20103;-63
2022/01/30 08:55:19;;;;;;;15.55;4.57;;;8.10;88.50;;;;;;5040374;28;20033;-64
2022/01/30 08:57:45;;;;;;;13.80;3.75;;;8.00;87.60;;;;;;5031091;28;20037;-64
2022/01/30 09:00:13;;;;;;;21.27;4.35;;;8.00;87.80;;;;;;5057284;28;20059;-63
2022/01/30 09:02:39;;;;;;;12.63;3.25;;;8.10;87.70;;;;;;5035605;28;20113;-63
2022/01/30 09:05:06;;;;;;;15.85;4.03;;;8.10;88.00;;;;;;5048833;28;20066;-64
2022/01/30 09:07:32;;;;;;;16.02;4.30;;;8.10;87.80;;;;;;5036199;28;20276;-64
2022/01/30 09:09:57;;;;;;;12.38;3.50;;;8.20;87.30;;;;;;5049057;28;20028;-64
2022/01/30 09:12:24;;;;;;;15.35;3.70;;;8.10;87.20;;;;;;5046932;28;20036;-64
2022/01/30 09:14:50;;;;;;;11.50;4.60;;;8.20;87.80;;;;;;5045081;28;20494;-64
2022/01/30 09:17:16;;;;;;;15.38;4.15;;;8.20;87.50;;;;;;5049775;28;20128;-63
2022/01/30 09:19:44;;;;;;;21.90;5.30;;;8.30;87.20;;;;;;5047004;28;20025;-63
2022/01/30 09:22:12;;;;;;;13.98;3.97;;;8.30;87.10;;;;;;5038865;28;20025;-63
2022/01/30 09:24:38;;;;;;;11.10;4.93;;;8.40;87.50;;;;;;5033994;28;20030;-62
2022/01/30 09:27:05;;;;;;;13.48;3.40;;;8.40;86.80;;;;;;5042047;28;20059;-63
2022/01/30 09:29:31;;;;;;;19.80;3.58;;;8.40;87.00;;;;;;5048329;28;20028;-63
2022/01/30 09:32:01;;;;;;;16.63;4.82;;;8.40;87.50;;;;;;5044156;28;20095;-63
2022/01/30 09:34:26;;;;;;;21.35;4.07;;;8.50;87.20;;;;;;5035507;28;20039;-62
2022/01/30 09:36:52;;;;;;;11.32;3.17;;;8.50;86.30;;;;;;5035231;28;20025;-62
2022/01/30 09:39:17;;;;;;;15.32;3.85;;;8.50;86.30;;;;;;5047218;28;20419;-62
2022/01/30 09:41:44;;;;;;;12.63;3.60;;;8.50;85.80;;;;;;5047958;28;20029;-64
2022/01/30 09:44:11;;;;;;;11.77;4.47;;;8.50;85.90;;;;;;5042431;28;20508;-64
2022/01/30 09:46:42;;;;;;;14.38;4.35;;;8.50;85.10;;;;;;5033375;28;20025;-63
2022/01/30 09:49:09;;;;;;;17.77;4.40;;;8.50;85.50;;;;;;5045626;28;20033;-64
2022/01/30 09:51:36;;;;;;;21.80;4.30;;;8.50;85.00;;;;;;5045951;28;20078;-63
2022/01/30 09:54:03;;;;;;;15.68;4.80;;;8.50;85.40;;;;;;5052275;28;20029;-64
2022/01/30 09:56:28;;;;;;;14.88;4.22;;;8.40;84.90;;;;;;5051092;28;20095;-64
2022/01/30 09:58:54;;;;;;;19.38;5.18;;;8.40;85.00;;;;;;5044600;28;20034;-64
2022/01/30 10:01:20;;;;;;;13.85;3.85;;;8.40;84.90;;;;;;5045155;28;20096;-64
2022/01/30 10:03:47;;;;;;;16.80;5.40;;;8.50;84.60;;;;;;5046916;28;20036;-64
2022/01/30 10:06:19;;;;;;;16.95;6.05;;;8.40;84.70;;;;;;5047086;28;20396;-64
2022/01/30 10:08:47;;;;;;;16.48;4.18;;;8.40;84.80;;;;;;5037604;28;20078;-64
2022/01/30 10:14:10;;;;;;;14.55;3.80;;;8.50;84.50;;;;;;5035399;28;20038;-63
2022/01/30 10:16:48;;;;;;;11.63;3.55;;;8.50;83.70;;;;;;5052145;28;20029;-64
2022/01/30 10:19:20;;;;;;;14.93;4.85;;;8.40;84.30;;;;;;5040932;28;20026;-64
2022/01/30 10:21:47;;;;;;;17.23;4.32;;;8.50;84.90;;;;;;5037384;28;20045;-64
2022/01/30 10:24:27;;;;;;;14.85;3.72;;;8.50;85.20;;;;;;5043980;28;20040;-64
2022/01/30 10:26:57;;;;;;;19.20;4.32;;;8.60;84.80;;;;;;5038563;28;20087;-64
2022/01/30 10:29:29;;;;;;;14.93;4.43;;;8.60;84.60;;;;;;5046109;28;20053;-64
2022/01/30 10:32:07;;;;;;;15.35;4.97;;;8.60;84.40;;;;;;5041030;28;20029;-64
2022/01/30 10:34:35;;;;;;;14.30;5.30;;;8.60;84.30;;;;;;5040966;28;20375;-65
2022/01/30 10:37:18;;;;;;;17.60;4.05;;;8.50;84.40;;;;;;5041968;28;20107;-63
2022/01/30 10:39:54;;;;;;;15.25;4.15;;;8.60;84.40;;;;;;5043456;28;20083;-64
2022/01/30 10:42:38;;;;;;;12.32;5.05;;;8.70;84.50;;;;;;5045554;28;20496;-63
2022/01/30 10:45:09;;;;;;;14.23;4.30;;;8.70;84.00;;;;;;5048936;28;20072;-63
2022/01/30 10:47:36;;;;;;;41.97;5.55;;;8.60;83.50;;;;;;5043363;28;20106;-63
2022/01/30 10:50:25;;;;;;;19.98;5.30;;;8.70;83.90;;;;;;5041780;28;20056;-63
2022/01/30 10:53:03;;;;;;;16.77;4.65;;;8.70;83.80;;;;;;5044488;28;20033;-63
2022/01/30 10:55:36;;;;;;;20.75;3.92;;;8.70;83.60;;;;;;5051424;28;20040;-63
2022/01/30 10:58:02;;;;;;;15.15;4.40;;;8.80;83.30;;;;;;5051053;28;20132;-63
2022/01/30 11:00:44;;;;;;;16.73;4.78;;;8.80;83.10;;;;;;5033646;28;20407;-63
2022/01/30 11:03:31;;;;;;;17.17;5.13;;;8.80;82.90;;;;;;5045520;28;20024;-63
2022/01/30 11:05:58;;;;;;;15.20;4.53;;;8.80;82.80;;;;;;5035422;28;20116;-63
2022/01/30 11:08:26;;;;;;;16.58;4.75;;;8.80;82.10;;;;;;5047636;28;20029;-63
2022/01/30 11:11:12;;;;;;;19.60;5.43;;;8.70;82.20;;;;;;5036545;28;20033;-63
2022/01/30 11:13:48;;;;;;;12.98;4.95;;;8.80;82.30;;;;;;5048891;28;20052;-64
2022/01/30 11:19:00;;;;;;;24.85;6.18;;;8.70;81.90;;;;;;5050792;28;20388;-63
2022/01/30 11:21:28;;;;;;;18.83;5.25;;;8.60;82.30;;;;;;5052609;28;20017;-63
2022/01/30 11:23:56;;;;;;;16.05;4.70;;;8.70;82.30;;;;;;5034802;28;20033;-63
2022/01/30 11:26:22;;;;;;;19.60;5.53;;;8.70;82.40;;;;;;5032711;28;20075;-63
2022/01/30 11:28:48;;;;;;;19.80;5.75;;;8.80;82.60;;;;;;5047069;28;20033;-63
2022/01/30 11:31:17;;;;;;;20.58;5.97;;;8.80;82.20;;;;;;5029752;28;20033;-64
2022/01/30 11:33:45;;;;;;;22.45;5.28;;;8.80;82.30;;;;;;5046435;28;20029;-63
2022/01/30 11:36:11;;;;;;;15.35;4.57;;;8.80;82.60;;;;;;5032222;28;20053;-63
2022/01/30 11:38:39;;;;;;;21.92;5.78;;;8.80;82.10;;;;;;5040845;28;20037;-63
2022/01/30 11:41:19;;;;;;;21.73;5.78;;;8.80;81.90;;;;;;5049350;28;20031;-63
2022/01/30 11:44:19;;;;;;;16.48;5.28;;;8.80;82.10;;;;;;5050517;28;20037;-64
2022/01/30 11:47:04;;;;;;;19.90;5.03;;;8.90;81.90;;;;;;5033278;28;20029;-64
2022/01/30 11:49:52;;;;;;;16.83;5.15;;;9.00;82.80;;;;;;5046524;28;20369;-64
2022/01/30 11:52:20;;;;;;;23.73;5.75;;;9.00;82.30;;;;;;5040102;28;20041;-63
2022/01/30 11:54:57;;;;;;;20.63;4.95;;;8.90;81.50;;;;;;5024177;28;20423;-63
2022/01/30 11:57:22;;;;;;;22.70;6.05;;;8.90;81.50;;;;;;5041641;28;20056;-65
2022/01/30 11:59:54;;;;;;;20.35;5.50;;;8.90;81.30;;;;;;5042346;28;20432;-64
2022/01/30 12:02:27;;;;;;;19.35;6.03;;;9.00;81.00;;;;;;5032015;28;20041;-64
2022/01/30 12:05:00;;;;;;;21.13;5.65;;;9.00;81.10;;;;;;5040152;28;20022;-64
2022/01/30 12:07:37;;;;;;;18.67;4.95;;;9.00;80.90;;;;;;5048722;28;20063;-64
2022/01/30 12:10:21;;;;;;;21.15;5.90;;;9.10;80.70;;;;;;5049896;28;20107;-63
2022/01/30 12:12:51;;;;;;;27.95;5.22;;;9.00;79.80;;;;;;5049573;28;20033;-64
2022/01/30 12:15:38;;;;;;;17.85;6.13;;;9.00;79.10;;;;;;5028296;28;20029;-64
2022/01/30 12:18:09;;;;;;;24.67;6.90;;;9.00;79.60;;;;;;5046676;28;20065;-64
2022/01/30 12:20:56;;;;;;;18.20;4.53;;;9.00;79.10;;;;;;5040920;28;20029;-64
2022/01/30 12:23:34;;;;;;;26.52;6.38;;;9.00;79.30;;;;;;5034456;28;20068;-64
2022/01/30 12:26:06;;;;;;;24.75;6.63;;;8.90;79.10;;;;;;5042049;28;20086;-63
2022/01/30 12:28:50;;;;;;;18.33;5.63;;;9.00;79.50;;;;;;5048869;28;20119;-63
2022/01/30 12:31:34;;;;;;;18.92;5.50;;;9.00;79.90;;;;;;5036968;28;20041;-64
2022/01/30 12:34:15;;;;;;;26.60;5.10;;;9.10;79.40;;;;;;5031237;28;20038;-64
2022/01/30 12:36:52;;;;;;;38.00;8.32;;;9.00;78.60;;;;;;5033472;28;20036;-64
2022/01/30 12:39:21;;;;;;;20.25;5.55;;;9.00;79.00;;;;;;5048030;28;20088;-64
2022/01/30 12:41:48;;;;;;;23.77;6.10;;;9.00;79.40;;;;;;5049654;28;20111;-64
2022/01/30 12:44:15;;;;;;;25.90;6.35;;;9.00;79.30;;;;;;5042185;28;20025;-64
2022/01/30 12:46:46;;;;;;;22.35;5.43;;;9.00;79.60;;;;;;5039820;28;20029;-64
2022/01/30 12:49:13;;;;;;;21.38;6.53;;;9.10;80.00;;;;;;5047104;28;20039;-64
2022/01/30 12:51:42;;;;;;;20.10;6.43;;;9.10;79.40;;;;;;5033211;28;20025;-64
2022/01/30 12:54:08;;;;;;;23.83;6.47;;;9.00;79.50;;;;;;5038232;28;20378;-64
2022/01/30 12:56:36;;;;;;;18.35;5.60;;;9.10;79.50;;;;;;5040651;28;20462;-64
2022/01/30 12:59:06;;;;;;;25.30;5.80;;;9.10;79.70;;;;;;5045468;28;20392;-64
2022/01/30 13:01:34;;;;;;;22.40;6.57;;;9.10;79.60;;;;;;5038853;28;20038;-65
2022/01/30 13:04:05;;;;;;;20.40;5.38;;;9.20;79.10;;;;;;5041993;28;20503;-65
2022/01/30 13:06:36;;;;;;;22.25;6.40;;;9.20;79.10;;;;;;5042020;28;20029;-65
2022/01/30 13:09:03;;;;;;;17.27;6.00;;;9.20;78.80;;;;;;5049454;28;20514;-63
2022/01/30 13:11:29;;;;;;;28.85;5.35;;;9.30;78.30;;;;;;5020902;28;20393;-62
2022/01/30 13:13:57;;;;;;;23.55;6.10;;;9.30;78.80;;;;;;5043857;28;20096;-64
2022/01/30 13:16:24;;;;;;;29.70;7.38;;;9.20;77.40;;;;;;5049552;28;20044;-64
2022/01/30 13:18:49;;;;;;;30.40;6.80;;;9.20;78.10;;;;;;5039520;28;20092;-64
2022/01/30 13:21:24;;;;;;;24.63;5.60;;;9.20;77.20;;;;;;5038149;28;20057;-64
2022/01/30 13:23:49;;;;;;;22.27;6.45;;;9.30;78.30;;;;;;5045274;28;20488;-64
2022/01/30 13:26:36;;;;;;;20.95;5.95;;;9.30;77.80;;;;;;5031408;28;20040;-65
2022/01/30 13:29:06;;;;;;;20.60;6.15;;;9.20;77.80;;;;;;5044582;28;20637;-64
2022/01/30 13:31:32;;;;;;;24.33;5.57;;;9.20;77.60;;;;;;5037378;28;20112;-65
2022/01/30 13:34:07;;;;;;;24.10;5.75;;;9.20;77.80;;;;;;5036582;28;20018;-64
2022/01/30 13:36:34;;;;;;;26.85;7.10;;;9.20;77.70;;;;;;5030115;28;20038;-65
2022/01/30 13:39:05;;;;;;;21.15;5.60;;;9.20;77.60;;;;;;5034518;28;20615;-64
2022/01/30 13:41:33;;;;;;;19.77;6.25;;;9.20;77.00;;;;;;5029904;28;20053;-64
2022/01/30 13:43:58;;;;;;;20.33;5.70;;;9.10;77.30;;;;;;5042469;28;20590;-64
2022/01/30 13:49:13;;;;;;;24.95;6.72;;;9.00;77.70;;;;;;5030994;28;20475;-64
2022/01/30 13:51:39;;;;;;;23.23;5.55;;;9.00;77.70;;;;;;5031567;28;20037;-64